Time;durP1;ratioP1;P1;durP2;ratioP2;P2;SDS_P1;SDS_P2;PMS_P1;PMS_P2;Temp;Humidity;BMP_temperature;BMP_pressure;BME280_temperature;BME280_humidity;BME280_pressure;Samples;Min_cycle;Max_cycle;Signal;HPM_P1;HPM_P2
2021/01/18 00:00:59;;;;;;;1999.90;999.90;;;;;;;-8.78;67.66;98772.69;4958776;28;20050;-63
2021/01/18 00:03:25;;;;;;;1999.90;999.90;;;;;;;-8.83;67.40;98767.09;4966995;28;20055;-64
2021/01/18 00:05:52;;;;;;;1999.90;999.90;;;;;;;-8.87;67.30;98769.31;4962758;28;20054;-65
2021/01/18 00:08:18;;;;;;;1999.90;999.90;;;;;;;-8.95;67.49;98762.22;4956038;28;20083;-64
2021/01/18 00:10:45;;;;;;;1999.90;999.90;;;;;;;-8.77;66.92;98769.00;4963065;28;20055;-65
2021/01/18 00:13:11;;;;;;;1999.90;999.90;;;;;;;-8.82;66.71;98766.91;4957282;28;20046;-64
2021/01/18 00:15:37;;;;;;;1999.90;999.90;;;;;;;-9.01;66.75;98762.16;4956826;28;20063;-64
2021/01/18 00:18:03;;;;;;;1999.90;999.90;;;;;;;-9.05;66.81;98767.03;4958622;28;20416;-64
2021/01/18 00:20:29;;;;;;;1999.90;999.90;;;;;;;-9.20;66.38;98759.03;4958585;28;20054;-64
2021/01/18 00:22:56;;;;;;;1999.90;999.90;;;;;;;-9.14;66.14;98761.00;4955296;28;20426;-65
2021/01/18 00:25:24;;;;;;;1999.90;999.90;;;;;;;-9.36;65.98;98765.47;4958161;28;20170;-64
2021/01/18 00:27:50;;;;;;;1999.90;999.90;;;;;;;-9.65;65.48;98760.97;4959394;28;20059;-64
2021/01/18 00:30:19;;;;;;;1999.90;999.90;;;;;;;-9.71;65.36;98757.16;4958886;28;20051;-65
2021/01/18 00:32:46;;;;;;;1999.90;999.90;;;;;;;-9.51;65.05;98767.31;4962512;28;20062;-64
2021/01/18 00:35:15;;;;;;;1999.90;999.90;;;;;;;-9.60;64.99;98763.91;4957004;28;20058;-64
2021/01/18 00:37:42;;;;;;;1999.90;999.90;;;;;;;-9.45;64.87;98764.72;4961125;28;20455;-65
2021/01/18 00:40:10;;;;;;;1999.90;999.90;;;;;;;-9.45;64.72;98774.59;4956856;28;20059;-65
2021/01/18 00:42:37;;;;;;;1999.90;999.90;;;;;;;-9.45;64.63;98778.13;4962795;28;20043;-64
2021/01/18 00:45:05;;;;;;;1999.90;999.90;;;;;;;-9.46;64.63;98781.00;4962517;28;20046;-64
2021/01/18 00:47:31;;;;;;;1999.90;999.90;;;;;;;-9.41;64.34;98776.75;4962645;28;20504;-64
2021/01/18 00:49:57;;;;;;;1999.90;999.90;;;;;;;-9.45;64.56;98777.28;4962511;28;20130;-65
2021/01/18 00:52:23;;;;;;;1999.90;999.90;;;;;;;-9.74;64.19;98778.97;4966435;28;20054;-65
2021/01/18 00:54:49;;;;;;;1999.90;999.90;;;;;;;-9.93;64.47;98778.50;4956483;28;20240;-63
2021/01/18 00:57:15;;;;;;;1999.90;999.90;;;;;;;-10.09;64.44;98782.16;4959739;28;20098;-63
2021/01/18 00:59:42;;;;;;;1999.90;999.90;;;;;;;-10.17;64.42;98784.06;4965570;28;20051;-64
2021/01/18 01:02:08;;;;;;;1999.90;999.90;;;;;;;-10.18;65.54;98779.72;4960480;28;20420;-65
2021/01/18 01:04:34;;;;;;;1999.90;999.90;;;;;;;-10.44;66.19;98775.66;4970237;28;20047;-63
2021/01/18 01:07:03;;;;;;;1999.90;999.90;;;;;;;-10.57;67.09;98772.75;4962559;28;20051;-63
2021/01/18 01:09:29;;;;;;;1999.90;999.90;;;;;;;-10.32;67.53;98782.19;4958365;28;20055;-63
2021/01/18 01:11:55;;;;;;;1999.90;999.90;;;;;;;-10.49;66.97;98778.03;4963687;28;20050;-64
2021/01/18 01:14:21;;;;;;;1999.90;999.90;;;;;;;-10.32;66.54;98773.34;4954652;28;20057;-63
2021/01/18 01:16:47;;;;;;;1999.90;999.90;;;;;;;-10.61;67.31;98769.63;4953710;28;20105;-64
2021/01/18 01:19:14;;;;;;;1999.90;999.90;;;;;;;-10.74;66.97;98778.22;4969965;28;20046;-64
2021/01/18 01:21:47;;;;;;;1999.90;999.90;;;;;;;-10.71;66.89;98769.03;4962955;28;20125;-64
2021/01/18 01:24:14;;;;;;;1999.90;999.90;;;;;;;-10.72;66.33;98760.16;4962747;28;20047;-65
2021/01/18 01:26:40;;;;;;;1999.90;999.90;;;;;;;-10.49;65.68;98770.03;4961099;28;20656;-65
2021/01/18 01:29:06;;;;;;;1999.90;999.90;;;;;;;-11.16;67.32;98763.47;4962217;28;20055;-64
2021/01/18 01:31:32;;;;;;;1999.90;999.90;;;;;;;-11.20;68.34;98764.81;4960757;28;20047;-64
2021/01/18 01:33:58;;;;;;;1999.90;999.90;;;;;;;-11.06;68.38;98764.09;4962235;28;20158;-64
2021/01/18 01:36:24;;;;;;;1999.90;999.90;;;;;;;-11.28;68.20;98765.72;4965509;28;20046;-64
2021/01/18 01:38:50;;;;;;;1999.90;999.90;;;;;;;-11.42;67.65;98759.25;4960171;28;20047;-64
2021/01/18 01:41:16;;;;;;;1999.90;999.90;;;;;;;-11.27;67.95;98762.00;4962560;28;20480;-64
2021/01/18 01:43:42;;;;;;;1999.90;999.90;;;;;;;-10.87;68.04;98761.94;4958477;28;20631;-64
2021/01/18 01:46:10;;;;;;;1999.90;999.90;;;;;;;-10.76;66.81;98758.03;4963093;28;20101;-64
2021/01/18 01:48:36;;;;;;;1999.90;999.90;;;;;;;-10.68;66.91;98764.13;4961556;28;20063;-64
2021/01/18 01:51:02;;;;;;;1999.90;999.90;;;;;;;-10.82;67.54;98767.56;4955865;28;20616;-64
2021/01/18 01:53:30;;;;;;;1999.90;999.90;;;;;;;-10.71;67.46;98756.47;4963853;28;20520;-64
2021/01/18 01:56:00;;;;;;;1999.90;999.90;;;;;;;-10.39;67.12;98765.25;4968448;28;20059;-64
2021/01/18 01:58:28;;;;;;;1999.90;999.90;;;;;;;-10.65;66.73;98771.78;4959774;28;20051;-64
2021/01/18 02:00:56;;;;;;;1999.90;999.90;;;;;;;-10.60;67.37;98754.41;4961998;28;20042;-64
2021/01/18 02:03:40;;;;;;;1999.90;999.90;;;;;;;-10.46;66.86;98758.97;4967909;28;20113;-64
2021/01/18 02:06:07;;;;;;;1999.90;999.90;;;;;;;-10.44;66.71;98762.28;4967744;28;20055;-64
2021/01/18 02:08:33;;;;;;;1999.90;999.90;;;;;;;-10.46;65.52;98759.78;4968265;28;20543;-64
2021/01/18 02:11:02;;;;;;;1999.90;999.90;;;;;;;-10.64;66.61;98752.09;4959524;28;20491;-64
2021/01/18 02:14:02;;;;;;;1999.90;999.90;;;;;;;-11.30;67.09;98756.19;4961364;28;20051;-64
2021/01/18 02:16:50;;;;;;;1999.90;999.90;;;;;;;-11.38;67.69;98749.88;4963230;28;20051;-64
2021/01/18 02:19:40;;;;;;;1999.90;999.90;;;;;;;-11.46;68.29;98763.28;4964634;28;20121;-64
2021/01/18 02:22:09;;;;;;;1999.90;999.90;;;;;;;-11.39;68.00;98756.22;4958556;28;20111;-64
2021/01/18 02:24:53;;;;;;;1999.90;999.90;;;;;;;-11.43;68.83;98762.94;4954063;28;20047;-64
2021/01/18 02:27:46;;;;;;;1999.90;999.90;;;;;;;-11.26;68.60;98755.66;4961397;28;20053;-64
2021/01/18 02:30:32;;;;;;;1999.90;999.90;;;;;;;-11.36;68.13;98763.91;4964999;28;20043;-64
2021/01/18 02:33:24;;;;;;;1999.90;999.90;;;;;;;-11.25;68.15;98756.50;4980197;28;20081;-64
2021/01/18 02:36:05;;;;;;;1999.90;999.90;;;;;;;-11.43;68.17;98752.28;4964871;28;20046;-64
2021/01/18 02:38:54;;;;;;;;;;;;;;;-11.43;68.68;98754.94;4957028;28;20462;-64
2021/01/18 02:41:38;;;;;;;1999.90;999.90;;;;;;;-11.43;68.06;98749.59;4949772;28;19969;-64
2021/01/18 02:44:07;;;;;;;1999.90;999.90;;;;;;;-11.54;68.13;98747.31;4961555;28;20046;-64
2021/01/18 02:46:35;;;;;;;1999.90;999.90;;;;;;;-11.43;67.82;98743.41;4966176;28;20427;-64
2021/01/18 02:49:03;;;;;;;1999.90;999.90;;;;;;;-11.22;67.38;98740.16;4958148;28;20055;-64
2021/01/18 02:51:32;;;;;;;1999.90;999.90;;;;;;;-11.43;67.74;98736.25;4967717;28;20057;-64
2021/01/18 02:54:00;;;;;;;1999.90;999.90;;;;;;;-11.35;67.44;98735.38;4963795;28;20361;-64
2021/01/18 02:56:34;;;;;;;1999.90;999.90;;;;;;;-11.36;67.17;98739.88;4944931;28;20113;-64
2021/01/18 02:59:03;;;;;;;1999.90;999.90;;;;;;;-11.29;67.59;98734.66;4967456;28;20305;-64
2021/01/18 03:02:02;;;;;;;1999.90;999.90;;;;;;;-11.43;67.61;98733.56;4964791;28;20054;-64
2021/01/18 03:04:55;;;;;;;1999.90;999.90;;;;;;;-11.55;67.87;98724.28;4950401;28;20058;-64
2021/01/18 03:07:39;;;;;;;1999.90;999.90;;;;;;;-11.62;67.41;98718.00;4964745;28;20051;-64
2021/01/18 03:10:11;;;;;;;1999.90;999.90;;;;;;;-11.54;67.53;98728.63;4960883;28;20548;-64
2021/01/18 03:12:45;;;;;;;1999.90;999.90;;;;;;;-11.62;67.99;98726.81;4958068;28;20051;-64
2021/01/18 03:15:13;;;;;;;1999.90;999.90;;;;;;;-11.63;67.97;98724.31;4960957;28;20051;-64
2021/01/18 03:17:43;;;;;;;1999.90;999.90;;;;;;;-11.46;67.57;98736.59;4956764;28;20594;-64
2021/01/18 03:20:10;;;;;;;1999.90;999.90;;;;;;;-12.22;67.51;98742.41;4958027;28;20066;-64
2021/01/18 03:22:36;;;;;;;1999.90;999.90;;;;;;;-12.01;67.87;98735.69;4960304;28;20051;-64
2021/01/18 03:25:08;;;;;;;1999.90;999.90;;;;;;;-12.07;67.98;98739.84;4956407;28;20090;-64
2021/01/18 03:27:50;;;;;;;1999.90;999.90;;;;;;;-12.33;68.56;98736.59;4963331;28;20051;-64
2021/01/18 03:30:21;;;;;;;1999.90;999.90;;;;;;;-12.22;67.84;98736.22;4963784;28;20063;-64
2021/01/18 03:32:54;;;;;;;1999.90;999.90;;;;;;;-12.28;67.91;98732.41;4961274;28;20042;-64
2021/01/18 03:35:22;;;;;;;1999.90;999.90;;;;;;;-12.02;68.03;98742.00;4962935;28;20051;-64
2021/01/18 03:37:52;;;;;;;1999.90;999.90;;;;;;;-12.26;67.74;98737.56;4967059;28;20534;-64
2021/01/18 03:40:19;;;;;;;;;;;;;;;-12.25;68.49;98736.56;4963686;28;20054;-64
2021/01/18 03:42:52;;;;;;;1999.90;999.90;;;;;;;-12.24;68.68;98735.56;4963828;28;19925;-64
2021/01/18 03:45:18;;;;;;;1999.90;999.90;;;;;;;-12.23;68.93;98724.72;4957347;28;20058;-64
2021/01/18 03:47:45;;;;;;;1999.90;999.90;;;;;;;-12.34;69.12;98724.25;4957394;28;20400;-64
2021/01/18 03:50:12;;;;;;;1999.90;999.90;;;;;;;-11.95;68.55;98721.66;4959264;28;20054;-64
2021/01/18 03:52:39;;;;;;;1999.90;999.90;;;;;;;-11.89;67.74;98736.13;4971606;28;20053;-64
2021/01/18 03:55:05;;;;;;;1999.90;999.90;;;;;;;-11.71;67.22;98723.34;4960610;28;20055;-65
2021/01/18 03:57:31;;;;;;;1999.90;999.90;;;;;;;-12.09;67.31;98717.84;4939403;28;20051;-64
2021/01/18 03:59:58;;;;;;;1999.90;999.90;;;;;;;-11.88;67.60;98719.09;4956044;28;20068;-64
2021/01/18 04:02:24;;;;;;;1999.90;999.90;;;;;;;-11.75;67.55;98716.69;4963422;28;20528;-64
2021/01/18 04:04:50;;;;;;;1999.90;999.90;;;;;;;-11.90;68.01;98716.59;4965968;28;20050;-64
2021/01/18 04:07:16;;;;;;;1999.90;999.90;;;;;;;-11.93;67.88;98711.63;4954866;28;20051;-64
2021/01/18 04:09:42;;;;;;;1999.90;999.90;;;;;;;-12.22;68.94;98717.53;4959022;28;20059;-64
2021/01/18 04:12:08;;;;;;;1999.90;999.90;;;;;;;-11.90;68.49;98718.44;4963253;28;20047;-64
2021/01/18 04:14:34;;;;;;;1999.90;999.90;;;;;;;-12.26;69.00;98713.56;4958636;28;20489;-62
2021/01/18 04:17:01;;;;;;;1999.90;999.90;;;;;;;-11.94;69.03;98706.47;4960979;28;20097;-65
2021/01/18 04:19:27;;;;;;;1999.90;999.90;;;;;;;-12.03;69.30;98712.84;4966158;28;20057;-65
2021/01/18 04:21:53;;;;;;;1999.90;999.90;;;;;;;-11.81;68.25;98701.38;4958950;28;20051;-65
2021/01/18 04:24:19;;;;;;;1999.90;999.90;;;;;;;-11.82;68.44;98710.38;4953217;28;20704;-65
2021/01/18 04:26:45;;;;;;;1999.90;999.90;;;;;;;-12.09;68.21;98703.69;4964452;28;20046;-65
2021/01/18 04:29:11;;;;;;;1999.90;999.90;;;;;;;-12.17;68.57;98701.88;4953656;28;20050;-65
2021/01/18 04:31:41;;;;;;;1999.90;999.90;;;;;;;-12.53;69.36;98712.97;4964029;28;20456;-65
2021/01/18 04:34:08;;;;;;;1999.90;999.90;;;;;;;-12.61;69.25;98707.63;4967693;28;20129;-64
2021/01/18 04:36:37;;;;;;;1999.90;999.90;;;;;;;-12.47;68.06;98701.63;4960201;28;20094;-64
2021/01/18 04:39:08;;;;;;;1999.90;999.90;;;;;;;-12.16;67.33;98700.03;4956399;28;20050;-65
2021/01/18 04:41:36;;;;;;;1999.90;999.90;;;;;;;-11.91;66.18;98700.75;4958824;28;20182;-65
2021/01/18 04:44:06;;;;;;;1999.90;999.90;;;;;;;-11.97;66.47;98704.16;4954338;28;20047;-65
2021/01/18 04:46:37;;;;;;;1999.90;999.90;;;;;;;-11.95;66.76;98707.47;4961176;28;20124;-64
2021/01/18 04:49:03;;;;;;;1999.90;999.90;;;;;;;-12.31;68.31;98711.44;4961846;28;20518;-65
2021/01/18 04:51:39;;;;;;;1999.90;999.90;;;;;;;-12.22;68.96;98709.53;4960020;28;20072;-64
2021/01/18 04:54:11;;;;;;;1999.90;999.90;;;;;;;-12.34;69.52;98716.25;4961513;28;20088;-65
2021/01/18 04:57:02;;;;;;;1999.90;999.90;;;;;;;-12.17;69.54;98709.06;4964171;28;20055;-62
2021/01/18 04:59:35;;;;;;;1999.90;999.90;;;;;;;-12.13;69.05;98721.88;4958870;28;20105;-62
2021/01/18 05:02:36;;;;;;;1999.90;999.90;;;;;;;-12.07;68.38;98713.19;4964283;28;20206;-62
2021/01/18 05:05:13;;;;;;;1999.90;999.90;;;;;;;-12.50;70.34;98717.09;4958812;28;20043;-62
2021/01/18 05:08:02;;;;;;;1999.90;999.90;;;;;;;-12.10;69.58;98702.88;4958557;28;20121;-62
2021/01/18 05:10:31;;;;;;;1999.90;999.90;;;;;;;-11.99;69.61;98704.31;4959322;28;20054;-63
2021/01/18 05:13:01;;;;;;;1999.90;999.90;;;;;;;-11.65;68.02;98702.31;4960815;28;20050;-62
2021/01/18 05:15:27;;;;;;;1999.90;999.90;;;;;;;-11.89;68.82;98701.44;4959052;28;20054;-63
2021/01/18 05:17:59;;;;;;;1999.90;999.90;;;;;;;-12.07;69.65;98699.00;4960352;28;20109;-64
2021/01/18 05:20:26;;;;;;;1999.90;999.90;;;;;;;-11.78;69.65;98700.22;4959038;28;20498;-64
2021/01/18 05:22:54;;;;;;;1999.90;999.90;;;;;;;-11.71;69.26;98702.00;4961595;28;20534;-65
2021/01/18 05:25:21;;;;;;;1999.90;999.90;;;;;;;-11.35;68.39;98701.47;4961288;28;20063;-65
2021/01/18 05:28:20;;;;;;;1999.90;999.90;;;;;;;-11.47;68.31;98707.41;4961540;28;20050;-65
2021/01/18 05:30:46;;;;;;;1999.90;999.90;;;;;;;-11.59;68.72;98712.31;4930073;28;20105;-62
2021/01/18 05:33:14;;;;;;;1999.90;999.90;;;;;;;-12.15;69.26;98721.19;4965556;28;20051;-63
2021/01/18 05:35:50;;;;;;;1999.90;999.90;;;;;;;-11.81;70.14;98706.72;4963110;28;20059;-64
2021/01/18 05:38:17;;;;;;;1999.90;999.90;;;;;;;-11.72;68.54;98711.00;4964951;28;20300;-62
2021/01/18 05:40:51;;;;;;;1999.90;999.90;;;;;;;-11.66;68.85;98703.31;4964660;28;20077;-63
2021/01/18 05:43:18;;;;;;;1999.90;999.90;;;;;;;-11.71;68.76;98707.34;4971957;28;20057;-63
2021/01/18 05:45:46;;;;;;;1999.90;999.90;;;;;;;-11.91;68.95;98700.75;4961617;28;20074;-63
2021/01/18 05:48:25;;;;;;;1999.90;999.90;;;;;;;-11.85;69.47;98705.41;4962937;28;20086;-63
2021/01/18 05:50:56;;;;;;;1999.90;999.90;;;;;;;-11.65;69.16;98695.16;4966279;28;20114;-63
2021/01/18 05:53:23;;;;;;;;;;;;;;;-12.25;69.14;98709.88;4962426;28;20448;-63
2021/01/18 05:55:55;;;;;;;1999.90;999.90;;;;;;;-13.30;68.92;98710.59;4958704;28;19989;-63
2021/01/18 05:58:32;;;;;;;1999.90;999.90;;;;;;;-13.13;70.60;98709.66;4962543;28;20047;-63
2021/01/18 06:01:00;;;;;;;1999.90;999.90;;;;;;;-13.19;70.98;98712.94;4959735;28;20054;-63
2021/01/18 06:03:28;;;;;;;1999.90;999.90;;;;;;;-13.09;70.95;98717.31;4956271;28;20050;-63
2021/01/18 06:05:55;;;;;;;1999.90;999.90;;;;;;;-13.24;71.27;98715.28;4954905;28;20423;-63
2021/01/18 06:08:23;;;;;;;1999.90;999.90;;;;;;;-12.86;70.91;98712.13;4962705;28;20055;-63
2021/01/18 06:11:08;;;;;;;1999.90;999.90;;;;;;;-12.62;70.82;98713.94;4960554;28;20070;-63
2021/01/18 06:13:34;;;;;;;1999.90;999.90;;;;;;;-12.36;70.49;98718.25;4958662;28;20058;-63
2021/01/18 06:16:03;;;;;;;1999.90;999.90;;;;;;;-12.14;70.65;98712.19;4962443;28;20464;-63
2021/01/18 06:18:33;;;;;;;1999.90;999.90;;;;;;;-12.26;70.44;98721.56;4965927;28;20098;-63
2021/01/18 06:21:00;;;;;;;;;;;;;;;-12.26;71.20;98734.91;4964076;28;20058;-63
2021/01/18 06:23:27;;;;;;;1999.90;999.90;;;;;;;-11.86;70.95;98728.59;4964279;28;19926;-63
2021/01/18 06:25:55;;;;;;;1999.90;999.90;;;;;;;-11.79;70.80;98728.72;4965256;28;20050;-64
2021/01/18 06:28:32;;;;;;;1999.90;999.90;;;;;;;-11.66;69.89;98730.03;4963030;28;20463;-64
2021/01/18 06:31:02;;;;;;;1999.90;999.90;;;;;;;-11.61;70.19;98728.50;4962324;28;20059;-64
2021/01/18 06:33:58;;;;;;;1999.90;999.90;;;;;;;-11.47;70.46;98726.91;4958013;28;20110;-64
2021/01/18 06:36:26;;;;;;;1999.90;999.90;;;;;;;-11.44;70.25;98728.41;4953633;28;20425;-64
2021/01/18 06:38:58;;;;;;;1999.90;999.90;;;;;;;-11.42;70.05;98727.22;4963535;28;20105;-64
2021/01/18 06:41:36;;;;;;;1999.90;999.90;;;;;;;-11.61;70.80;98722.31;4957523;28;20762;-64
2021/01/18 06:44:04;;;;;;;1999.90;999.90;;;;;;;-11.31;70.43;98717.13;4963274;28;20106;-64
2021/01/18 06:46:35;;;;;;;1999.90;999.90;;;;;;;-10.93;69.98;98718.06;4959463;28;20126;-64
2021/01/18 06:49:03;;;;;;;1999.90;999.90;;;;;;;-10.78;68.92;98718.09;4962100;28;20089;-64
2021/01/18 06:51:30;;;;;;;1999.90;999.90;;;;;;;-10.68;69.02;98718.69;4959587;28;20047;-65
2021/01/18 06:53:59;;;;;;;1999.90;999.90;;;;;;;-10.50;68.24;98720.22;4961003;28;20058;-64
2021/01/18 06:56:49;;;;;;;1999.90;999.90;;;;;;;-10.18;67.70;98723.56;4966703;28;20051;-65
2021/01/18 06:59:46;;;;;;;1999.90;999.90;;;;;;;-10.40;68.97;98723.47;4960899;28;20054;-65
2021/01/18 07:02:33;;;;;;;1999.90;999.90;;;;;;;-10.38;68.56;98729.47;4957563;28;20054;-64
2021/01/18 07:05:10;;;;;;;1999.90;999.90;;;;;;;-10.36;68.50;98731.94;4954373;28;20051;-64
2021/01/18 07:07:38;;;;;;;1999.90;999.90;;;;;;;-10.32;68.10;98726.03;4954198;28;20505;-65
2021/01/18 07:10:10;;;;;;;1999.90;999.90;;;;;;;-10.35;68.29;98729.09;4960034;28;20550;-64
2021/01/18 07:12:36;;;;;;;1999.90;999.90;;;;;;;-10.18;68.35;98739.59;4959129;28;20110;-64
2021/01/18 07:15:05;;;;;;;1999.90;999.90;;;;;;;-9.93;68.64;98732.16;4956499;28;20055;-65
2021/01/18 07:17:34;;;;;;;1999.90;999.90;;;;;;;-9.83;67.50;98738.06;4952974;28;20051;-65
2021/01/18 07:20:03;;;;;;;1999.90;999.90;;;;;;;-9.79;67.65;98744.72;4965203;28;20451;-65
2021/01/18 07:23:07;;;;;;;1999.90;999.90;;;;;;;-9.87;68.47;98747.47;4960514;28;20077;-65
2021/01/18 07:25:36;;;;;;;1999.90;999.90;;;;;;;-9.80;68.01;98739.53;4957799;28;20440;-65
2021/01/18 07:28:03;;;;;;;1999.90;999.90;;;;;;;-9.79;67.87;98743.91;4959878;28;20063;-65
2021/01/18 07:30:34;;;;;;;1999.90;999.90;;;;;;;-9.98;68.71;98745.25;4954325;28;20062;-65
2021/01/18 07:33:13;;;;;;;1999.90;999.90;;;;;;;-9.61;67.89;98751.53;4953797;28;20052;-65
2021/01/18 07:35:43;;;;;;;1999.90;999.90;;;;;;;-9.88;68.83;98740.47;4951944;28;20403;-64
2021/01/18 07:38:14;;;;;;;1999.90;999.90;;;;;;;-9.58;68.19;98753.84;4961566;28;20504;-65
2021/01/18 07:41:00;;;;;;;1999.90;999.90;;;;;;;-9.80;69.47;98745.72;4959226;28;20534;-65
2021/01/18 07:43:34;;;;;;;1999.90;999.90;;;;;;;-9.95;69.59;98743.03;4953026;28;20110;-65
2021/01/18 07:46:24;;;;;;;1999.90;999.90;;;;;;;-9.50;69.29;98744.88;4957171;28;20059;-65
2021/01/18 07:49:10;;;;;;;1999.90;999.90;;;;;;;-9.71;69.09;98745.63;4953049;28;20146;-65
2021/01/18 07:51:36;;;;;;;1999.90;999.90;;;;;;;-9.45;68.77;98734.41;4954427;28;20110;-64
2021/01/18 07:54:03;;;;;;;1999.90;999.90;;;;;;;-10.10;69.96;98728.84;4959684;28;20108;-64
2021/01/18 07:56:30;;;;;;;1999.90;999.90;;;;;;;-10.17;70.16;98735.94;4963291;28;20090;-65
2021/01/18 07:59:01;;;;;;;1999.90;999.90;;;;;;;-9.97;69.77;98738.91;4953567;28;20118;-65
2021/01/18 08:01:31;;;;;;;1999.90;999.90;;;;;;;-9.90;69.76;98745.16;4961174;28;20756;-65
2021/01/18 08:04:19;;;;;;;1999.90;999.90;;;;;;;-9.97;69.13;98750.44;4958501;28;20059;-65
2021/01/18 08:07:04;;;;;;;1999.90;999.90;;;;;;;-10.19;70.73;98748.66;4948624;28;20055;-65
2021/01/18 08:09:32;;;;;;;1999.90;999.90;;;;;;;-9.70;69.86;98744.63;4959692;28;20554;-65
2021/01/18 08:12:29;;;;;;;1999.90;999.90;;;;;;;-9.41;69.35;98741.06;4961633;28;20296;-65
2021/01/18 08:14:57;;;;;;;1999.90;999.90;;;;;;;-9.75;70.80;98745.16;4957068;28;20054;-65
2021/01/18 08:17:23;;;;;;;1999.90;999.90;;;;;;;-9.74;70.71;98738.81;4963079;28;20054;-65
2021/01/18 08:20:09;;;;;;;1999.90;999.90;;;;;;;-9.34;69.32;98742.00;4961786;28;20254;-65
2021/01/18 08:22:36;;;;;;;1999.90;999.90;;;;;;;-9.47;69.48;98744.50;4952882;28;20121;-65
2021/01/18 08:25:03;;;;;;;1999.90;999.90;;;;;;;-9.46;69.71;98748.84;4957170;28;20105;-65
2021/01/18 08:27:42;;;;;;;1999.90;999.90;;;;;;;-9.32;69.47;98745.28;4954827;28;20114;-63
2021/01/18 08:30:18;;;;;;;1999.90;999.90;;;;;;;-9.53;69.75;98739.91;4956853;28;20051;-63
2021/01/18 08:33:09;;;;;;;1999.90;999.90;;;;;;;-10.03;71.52;98745.81;4954350;28;20059;-63
2021/01/18 08:35:44;;;;;;;1999.90;999.90;;;;;;;-9.34;70.14;98743.84;4953462;28;20159;-64
2021/01/18 08:38:21;;;;;;;1999.90;999.90;;;;;;;-9.11;70.53;98751.72;4957840;28;20118;-64
2021/01/18 08:40:52;;;;;;;1999.90;999.90;;;;;;;-9.52;70.95;98754.97;4956506;28;20069;-63
2021/01/18 08:43:20;;;;;;;;;;;;;;;-9.26;71.48;98749.94;4954829;28;20054;-63
2021/01/18 08:45:54;;;;;;;1999.90;999.90;;;;;;;-9.09;70.18;98747.03;4958046;28;19973;-65
2021/01/18 08:48:25;;;;;;;1999.90;999.90;;;;;;;-8.96;70.28;98749.84;4951754;28;20058;-63
2021/01/18 08:50:57;;;;;;;;;;;;;;;-8.89;70.12;98750.72;4963270;28;20055;-64
2021/01/18 08:53:40;;;;;;;1999.90;999.90;;;;;;;-8.73;69.92;98759.56;4956050;28;19948;-64
2021/01/18 08:56:21;;;;;;;1999.90;999.90;;;;;;;-8.41;69.65;98757.34;4955918;28;20093;-65
2021/01/18 08:58:48;;;;;;;1999.90;999.90;;;;;;;-8.11;68.95;98746.41;4960684;28;20086;-65
2021/01/18 09:01:22;;;;;;;1999.90;999.90;;;;;;;-8.25;69.01;98762.41;4957145;28;20130;-65
2021/01/18 09:04:08;;;;;;;1999.90;999.90;;;;;;;-8.42;69.27;98756.50;4961180;28;20106;-65
2021/01/18 09:06:35;;;;;;;1999.90;999.90;;;;;;;-8.54;68.99;98756.22;4961414;28;20059;-65
2021/01/18 09:09:07;;;;;;;1999.90;999.90;;;;;;;-8.93;70.21;98760.19;4960221;28;20050;-64
2021/01/18 09:11:34;;;;;;;1999.90;999.90;;;;;;;-8.87;70.28;98754.06;4953890;28;20043;-64
2021/01/18 09:14:01;;;;;;;1999.90;999.90;;;;;;;-8.88;71.27;98748.91;4958447;28;20117;-64
2021/01/18 09:16:28;;;;;;;1999.90;999.90;;;;;;;-8.14;69.98;98756.53;4975253;28;20117;-65
2021/01/18 09:19:06;;;;;;;1999.90;999.90;;;;;;;-7.93;69.43;98748.59;4960543;28;20109;-64
2021/01/18 09:21:33;;;;;;;1999.90;999.90;;;;;;;-7.94;69.42;98742.41;4959479;28;20050;-64
2021/01/18 09:24:06;;;;;;;1999.90;999.90;;;;;;;-7.91;70.13;98760.81;4947866;28;20344;-64
2021/01/18 09:26:32;;;;;;;1999.90;999.90;;;;;;;-7.74;69.61;98753.31;4959116;28;20057;-65
2021/01/18 09:28:58;;;;;;;1999.90;999.90;;;;;;;-7.47;69.55;98750.75;4958705;28;20055;-63
2021/01/18 09:31:25;;;;;;;1999.90;999.90;;;;;;;-7.74;69.83;98741.72;4956470;28;20128;-63
2021/01/18 09:33:52;;;;;;;1999.90;999.90;;;;;;;-8.03;70.61;98738.22;4955566;28;20378;-63
2021/01/18 09:36:22;;;;;;;1999.90;999.90;;;;;;;-7.81;70.36;98741.69;4962346;28;20046;-63
2021/01/18 09:38:48;;;;;;;1999.90;999.90;;;;;;;-7.54;70.75;98720.34;4960799;28;20054;-63
2021/01/18 09:41:15;;;;;;;1999.90;999.90;;;;;;;-7.41;69.63;98730.31;4958931;28;20062;-63
2021/01/18 09:43:43;;;;;;;1999.90;999.90;;;;;;;-7.87;69.58;98731.75;4953663;28;20516;-63
2021/01/18 09:46:10;;;;;;;1999.90;999.90;;;;;;;-8.01;70.63;98725.44;4957562;28;20047;-63
2021/01/18 09:48:37;;;;;;;1999.90;999.90;;;;;;;-7.43;69.47;98717.91;4951322;28;20584;-64
2021/01/18 09:51:05;;;;;;;1999.90;999.90;;;;;;;-7.35;69.67;98714.22;4961582;28;20051;-63
2021/01/18 09:53:33;;;;;;;1999.90;999.90;;;;;;;-6.80;68.80;98722.22;4958350;28;20054;-64
2021/01/18 09:56:13;;;;;;;1999.90;999.90;;;;;;;-6.72;67.89;98716.63;4960734;28;20483;-64
2021/01/18 09:58:58;;;;;;;1999.90;999.90;;;;;;;-6.79;68.38;98717.66;4961433;28;20062;-65
2021/01/18 10:01:33;;;;;;;1999.90;999.90;;;;;;;-6.57;68.50;98721.00;4952947;28;20055;-65
2021/01/18 10:04:03;;;;;;;1999.90;999.90;;;;;;;-6.40;68.70;98710.66;4956821;28;20494;-64
2021/01/18 10:06:31;;;;;;;1999.90;999.90;;;;;;;-6.87;68.92;98699.88;4957424;28;20051;-64
2021/01/18 10:09:07;;;;;;;1999.90;999.90;;;;;;;-6.84;69.21;98698.63;4950971;28;20055;-64
2021/01/18 10:11:50;;;;;;;1999.90;999.90;;;;;;;-6.43;68.77;98701.16;4954194;28;20051;-64
2021/01/18 10:14:25;;;;;;;1999.90;999.90;;;;;;;-6.17;68.09;98707.56;4957345;28;20325;-64
2021/01/18 10:17:06;;;;;;;1999.90;999.90;;;;;;;-6.06;67.19;98701.56;4962011;28;20058;-64
2021/01/18 10:19:35;;;;;;;1999.90;999.90;;;;;;;-6.22;67.58;98701.97;4964173;28;20082;-64
2021/01/18 10:22:02;;;;;;;1999.90;999.90;;;;;;;-6.05;68.20;98700.50;4963172;28;20058;-64
2021/01/18 10:24:36;;;;;;;1999.90;999.90;;;;;;;-6.63;68.82;98706.50;4958620;28;20118;-65
2021/01/18 10:27:04;;;;;;;1999.90;999.90;;;;;;;-6.60;69.40;98711.47;4957844;28;20047;-65
2021/01/18 10:29:33;;;;;;;1999.90;999.90;;;;;;;-7.09;69.92;98700.00;4962860;28;20093;-65
2021/01/18 10:32:00;;;;;;;1999.90;999.90;;;;;;;-6.92;70.71;98707.72;4959011;28;20056;-65
2021/01/18 10:34:29;;;;;;;1999.90;999.90;;;;;;;-6.60;70.58;98700.72;4962789;28;20059;-65
2021/01/18 10:36:57;;;;;;;1999.90;999.90;;;;;;;-7.01;71.18;98698.19;4960928;28;20058;-65
2021/01/18 10:39:36;;;;;;;1999.90;999.90;;;;;;;-6.94;71.64;98699.03;4964741;28;20054;-64
2021/01/18 10:42:10;;;;;;;1999.90;999.90;;;;;;;-6.27;70.44;98705.28;4959237;28;20042;-64
2021/01/18 10:44:39;;;;;;;1999.90;999.90;;;;;;;-6.11;70.15;98693.25;4954220;28;20141;-64
2021/01/18 10:47:06;;;;;;;1999.90;999.90;;;;;;;-6.25;70.50;98702.38;4959065;28;20061;-65
2021/01/18 10:49:34;;;;;;;1999.90;999.90;;;;;;;-5.75;69.72;98691.91;4957062;28;20397;-63
2021/01/18 10:52:11;;;;;;;1999.90;999.90;;;;;;;-5.41;68.22;98684.53;4955087;28;20495;-64
2021/01/18 10:54:38;;;;;;;1999.90;999.90;;;;;;;-5.67;69.48;98685.47;4957544;28;20412;-64
2021/01/18 10:57:20;;;;;;;1999.90;999.90;;;;;;;-5.61;68.57;98695.41;4959359;28;20108;-65
2021/01/18 11:00:09;;;;;;;1999.90;999.90;;;;;;;-5.92;68.28;98686.16;4954539;28;20073;-65
2021/01/18 11:02:36;;;;;;;;;;;;;;;-6.10;69.01;98689.53;4958931;28;20499;-65
2021/01/18 11:05:03;;;;;;;1999.90;999.90;;;;;;;-6.17;69.41;98677.94;4958146;28;19926;-65
2021/01/18 11:07:31;;;;;;;1999.90;999.90;;;;;;;-5.47;68.39;98674.59;4960195;28;20055;-63
2021/01/18 11:10:00;;;;;;;1999.90;999.90;;;;;;;-5.25;67.24;98679.72;4963860;28;20534;-63
2021/01/18 11:12:30;;;;;;;1999.90;999.90;;;;;;;-5.70;68.00;98677.78;4953780;28;20143;-63